Time;durP1;ratioP1;P1;durP2;ratioP2;P2;SDS_P1;SDS_P2;PMS_P1;PMS_P2;Temp;Humidity;BMP_temperature;BMP_pressure;BME280_temperature;BME280_humidity;BME280_pressure;Samples;Min_cycle;Max_cycle;Signal;HPM_P1;HPM_P2
2022/06/13 00:01:11;;;;;;;8.02;7.28;;;;;;;23.46;52.20;100156.84;5012419;28;97265;-81
2022/06/13 00:03:37;;;;;;;8.50;7.70;;;;;;;23.49;52.22;100155.72;5005429;28;96914;-80
2022/06/13 00:06:03;;;;;;;8.07;7.38;;;;;;;23.47;52.23;100146.97;4996976;28;101454;-80
2022/06/13 00:08:28;;;;;;;8.02;7.22;;;;;;;23.48;52.56;100146.84;5025909;28;97874;-81
2022/06/13 00:10:54;;;;;;;9.38;8.30;;;;;;;23.45;52.78;100157.84;5011241;28;98631;-80
2022/06/13 00:13:19;;;;;;;12.70;8.43;;;;;;;23.38;53.02;100143.31;5027131;28;97234;-80
2022/06/13 00:15:45;;;;;;;14.00;8.13;;;;;;;23.34;53.26;100125.84;5013824;28;101493;-81
2022/06/13 00:18:10;;;;;;;8.52;7.93;;;;;;;23.46;52.97;100119.34;5014893;28;97931;-80
2022/06/13 00:20:36;;;;;;;10.27;8.00;;;;;;;23.34;53.64;100136.53;5014586;28;97276;-80
2022/06/13 00:23:01;;;;;;;9.27;8.32;;;;;;;23.38;53.38;100129.06;5022751;28;98332;-79
2022/06/13 00:25:27;;;;;;;9.23;8.00;;;;;;;23.29;53.40;100128.06;5014195;28;100053;-84
2022/06/13 00:27:53;;;;;;;8.90;8.10;;;;;;;23.31;53.20;100110.03;5009027;28;99765;-81
2022/06/13 00:30:18;;;;;;;9.18;7.80;;;;;;;23.20;54.38;100072.69;5020266;28;97414;-80
2022/06/13 00:32:44;;;;;;;9.80;9.00;;;;;;;22.93;55.39;100038.53;4995170;28;97381;-81
2022/06/13 00:35:09;;;;;;;8.60;7.88;;;;;;;22.95;55.65;100056.19;5013263;28;101417;-82
2022/06/13 00:37:35;;;;;;;8.18;7.47;;;;;;;22.87;55.42;100053.31;5029630;28;101299;-80
2022/06/13 00:40:00;;;;;;;8.77;8.10;;;;;;;22.62;56.55;100061.81;5031794;28;96827;-79
2022/06/13 00:42:27;;;;;;;9.10;8.15;;;;;;;22.58;57.05;100063.94;5014539;28;97208;-81
2022/06/13 00:45:11;;;;;;;8.90;8.00;;;;;;;22.51;57.98;100065.44;5015955;28;101056;-81
2022/06/13 00:47:39;;;;;;;9.20;8.50;;;;;;;22.53;58.08;100067.00;5019392;27;100258;-81
2022/06/13 00:50:07;;;;;;;9.88;9.02;;;;;;;22.60;57.97;100065.50;4993823;28;96770;-83
2022/06/13 00:52:42;;;;;;;8.98;8.20;;;;;;;22.56;58.63;100071.22;5014287;28;96837;-80
2022/06/13 00:55:12;;;;;;;8.88;8.15;;;;;;;22.60;58.80;100062.81;5013196;28;101657;-80
2022/06/13 00:57:37;;;;;;;9.73;8.90;;;;;;;22.39;59.77;100064.69;5030960;28;97156;-80
2022/06/13 01:00:08;;;;;;;9.65;8.85;;;;;;;22.43;58.99;100073.28;5014571;28;96878;-82
2022/06/13 01:02:34;;;;;;;9.10;8.40;;;;;;;22.46;58.64;100063.19;4998401;28;97635;-78
2022/06/13 01:05:00;;;;;;;8.68;8.05;;;;;;;22.45;59.60;100056.13;5021549;27;97999;-80
2022/06/13 01:07:27;;;;;;;9.63;8.50;;;;;;;22.60;59.05;100061.94;5012696;28;99583;-80
2022/06/13 01:12:37;;;;;;;8.88;8.07;;;;;;;22.17;60.55;100048.81;5023246;28;97201;-80
2022/06/13 01:15:21;;;;;;;9.60;8.60;;;;;;;22.35;60.78;100049.91;5025028;28;101200;-81
2022/06/13 01:17:50;;;;;;;9.35;8.70;;;;;;;22.26;60.52;100043.53;5011883;28;101188;-80
2022/06/13 01:20:34;;;;;;;10.95;9.57;;;;;;;22.15;60.88;100044.44;5024686;28;98012;-78
2022/06/13 01:23:25;;;;;;;9.27;8.60;;;;;;;22.10;60.93;100048.47;5010800;28;97059;-80
2022/06/13 01:26:09;;;;;;;10.17;9.37;;;;;;;22.15;61.11;100044.44;5026786;28;98119;-80
2022/06/13 01:28:53;;;;;;;9.93;9.23;;;;;;;22.11;60.82;100040.34;5030240;28;97118;-80
2022/06/13 01:31:27;;;;;;;9.27;8.57;;;;;;;22.10;60.96;100035.09;5031158;28;97259;-80
2022/06/13 01:34:05;;;;;;;9.50;8.73;;;;;;;22.06;60.82;100041.72;5020687;28;96784;-80
2022/06/13 01:36:31;;;;;;;8.52;7.90;;;;;;;21.92;60.86;100016.19;5004583;28;100015;-80
2022/06/13 01:39:15;;;;;;;9.60;8.75;;;;;;;22.19;60.41;100031.66;5021457;27;97864;-81
2022/06/13 01:41:49;;;;;;;9.35;8.65;;;;;;;22.11;61.08;100035.00;5031451;28;97090;-80
2022/06/13 01:44:36;;;;;;;9.05;8.45;;;;;;;22.05;60.98;100038.19;5029518;28;98556;-80
2022/06/13 01:47:17;;;;;;;8.50;7.90;;;;;;;21.98;60.67;100015.63;5022684;28;101855;-80
2022/06/13 01:50:02;;;;;;;8.73;8.02;;;;;;;21.92;60.98;100026.88;5008609;28;97582;-79
2022/06/13 01:52:41;;;;;;;9.00;8.40;;;;;;;21.98;61.05;100034.34;5023276;28;96691;-82
2022/06/13 01:55:28;;;;;;;9.75;8.95;;;;;;;21.87;61.85;100045.09;5007028;28;97501;-80
2022/06/13 01:58:07;;;;;;;9.20;8.52;;;;;;;21.75;62.15;100025.63;5029445;28;97692;-82
2022/06/13 02:00:34;;;;;;;10.52;9.73;;;;;;;21.77;61.81;100017.50;5010335;28;101025;-82
2022/06/13 02:03:19;;;;;;;10.43;9.52;;;;;;;21.81;61.81;100043.81;4995903;28;97061;-80
2022/06/13 02:05:50;;;;;;;11.10;9.93;;;;;;;21.71;62.32;100034.91;4993664;28;97182;-83
2022/06/13 02:08:21;;;;;;;10.23;9.50;;;;;;;21.74;62.65;100047.16;5008407;28;100826;-80
2022/06/13 02:10:52;;;;;;;10.18;9.38;;;;;;;21.72;62.54;100047.25;5007376;28;101239;-79
2022/06/13 02:13:31;;;;;;;10.18;9.27;;;;;;;21.73;62.30;100043.63;4998119;28;97070;-80
2022/06/13 02:16:00;;;;;;;10.93;10.02;;;;;;;21.75;62.08;100047.00;5013727;28;96974;-80
2022/06/13 02:18:32;;;;;;;10.57;9.75;;;;;;;21.67;62.00;100041.47;4994779;28;101614;-80
2022/06/13 02:21:04;;;;;;;10.82;9.95;;;;;;;21.56;61.46;100012.16;5012700;28;101044;-84
2022/06/13 02:23:32;;;;;;;12.07;10.90;;;;;;;21.54;61.92;100033.66;5012565;28;96784;-81
2022/06/13 02:26:22;;;;;;;11.35;10.30;;;;;;;21.53;62.26;100041.81;5030439;28;96851;-80
2022/06/13 02:28:57;;;;;;;10.27;9.38;;;;;;;21.52;62.17;100046.28;4977293;28;101254;-80
2022/06/13 02:31:27;;;;;;;11.75;10.57;;;;;;;21.53;62.24;100058.66;4986883;28;101582;-82
2022/06/13 02:33:59;;;;;;;10.38;9.57;;;;;;;21.51;62.20;100065.94;5015386;28;98295;-82
2022/06/13 02:36:37;;;;;;;10.25;9.40;;;;;;;21.52;61.74;100067.63;5012521;28;97633;-80
2022/06/13 02:39:15;;;;;;;11.15;9.98;;;;;;;21.55;61.56;100056.69;5027354;28;97538;-81
2022/06/13 02:41:55;;;;;;;12.07;10.77;;;;;;;21.66;60.91;100039.78;5009351;28;101756;-81
2022/06/13 02:44:30;;;;;;;12.68;11.38;;;;;;;21.57;60.79;100024.53;5014768;27;97365;-80
2022/06/13 02:46:59;;;;;;;15.32;11.30;;;;;;;21.24;61.96;100048.56;5007943;28;96826;-82
2022/06/13 02:49:37;;;;;;;11.63;10.55;;;;;;;21.32;61.76;100049.72;4999964;28;101628;-80
2022/06/13 02:52:03;;;;;;;13.57;11.75;;;;;;;21.24;62.11;100069.91;5030960;28;97546;-80
2022/06/13 02:54:37;;;;;;;12.80;11.55;;;;;;;20.96;62.73;100065.13;5012512;28;97268;-80
2022/06/13 02:57:27;;;;;;;12.88;11.52;;;;;;;20.95;62.32;100053.63;5030301;28;96879;-80
2022/06/13 03:00:20;;;;;;;12.85;11.57;;;;;;;21.00;62.91;100071.91;5008250;28;101347;-80
2022/06/13 03:03:02;;;;;;;12.63;11.43;;;;;;;21.16;62.24;100066.19;5005237;28;100629;-80
2022/06/13 03:05:44;;;;;;;12.27;11.25;;;;;;;21.20;62.15;100052.44;5028474;28;97292;-80
2022/06/13 03:08:19;;;;;;;;;;;;;;;21.16;61.50;100051.00;5025011;28;97047;-80
2022/06/13 03:10:53;;;;;;;13.25;11.88;;;;;;;20.96;61.89;100044.63;5029106;28;101403;-80
2022/06/13 03:13:33;;;;;;;13.20;11.90;;;;;;;20.74;63.19;100042.00;5010111;28;97383;-82
2022/06/13 03:16:06;;;;;;;12.77;11.80;;;;;;;20.84;62.72;100047.47;5029902;28;96710;-80
2022/06/13 03:18:42;;;;;;;13.30;11.98;;;;;;;20.94;62.48;100037.72;5004384;28;97420;-80
2022/06/13 03:21:12;;;;;;;13.55;11.48;;;;;;;20.91;62.22;100029.97;5011145;28;98657;-80
2022/06/13 03:23:46;;;;;;;12.43;11.25;;;;;;;21.01;62.72;100036.28;5011215;28;101193;-80
2022/06/13 03:26:24;;;;;;;12.57;11.38;;;;;;;21.01;62.38;100034.44;5008638;28;97357;-80
2022/06/13 03:28:54;;;;;;;12.85;11.45;;;;;;;20.94;61.76;100017.25;5008222;28;98185;-80
2022/06/13 03:31:28;;;;;;;12.63;11.40;;;;;;;21.01;61.62;100025.59;5028040;28;101053;-82
2022/06/13 03:34:00;;;;;;;12.20;10.95;;;;;;;20.90;62.45;100028.28;4984500;28;100902;-82
2022/06/13 03:36:43;;;;;;;12.05;10.90;;;;;;;20.84;62.24;100026.97;5022147;27;98121;-81
2022/06/13 03:39:15;;;;;;;11.32;10.45;;;;;;;20.96;62.53;100031.28;5010188;28;97863;-81
2022/06/13 03:41:47;;;;;;;12.20;10.90;;;;;;;21.05;62.61;100031.53;5012084;28;101622;-80
2022/06/13 03:44:38;;;;;;;16.27;11.82;;;;;;;21.04;62.24;100033.34;4981324;28;100599;-79
2022/06/13 03:47:20;;;;;;;11.65;10.65;;;;;;;21.19;61.58;100037.41;5012230;28;97194;-80
2022/06/13 03:49:51;;;;;;;11.20;10.32;;;;;;;21.09;62.61;100032.94;5012711;28;97323;-81
2022/06/13 03:52:18;;;;;;;11.20;10.40;;;;;;;21.11;62.55;100025.69;5031612;28;97500;-80
2022/06/13 03:54:48;;;;;;;12.00;10.90;;;;;;;21.11;62.08;100041.69;4991117;28;101108;-80
2022/06/13 03:57:24;;;;;;;11.10;10.30;;;;;;;21.15;62.67;100059.16;5013547;28;97382;-80
2022/06/13 03:59:56;;;;;;;11.32;10.38;;;;;;;21.19;62.53;100073.94;5015642;28;97423;-79
2022/06/13 04:02:25;;;;;;;15.68;11.82;;;;;;;21.25;61.00;100068.09;5022082;28;97646;-82
2022/06/13 04:04:53;;;;;;;19.42;11.45;;;;;;;21.30;60.91;100062.38;5020262;28;98092;-80
2022/06/13 04:07:20;;;;;;;21.55;12.05;;;;;;;21.12;61.10;100043.38;5000910;28;97480;-80
2022/06/13 04:09:49;;;;;;;19.02;12.85;;;;;;;20.97;61.25;100034.81;5022304;27;97557;-80
2022/06/13 04:12:29;;;;;;;13.52;12.07;;;;;;;20.60;62.85;99996.97;5009410;28;101302;-79
2022/06/13 04:15:29;;;;;;;12.57;11.60;;;;;;;20.47;63.50;99989.91;5010581;28;101057;-80
2022/06/13 04:18:20;;;;;;;12.32;11.40;;;;;;;20.49;63.70;99979.13;5011490;28;97330;-82
2022/06/13 04:21:10;;;;;;;12.45;11.32;;;;;;;20.51;64.05;99967.38;5024537;28;96829;-82
2022/06/13 04:23:44;;;;;;;12.95;11.80;;;;;;;20.33;63.92;99942.19;5030584;28;98426;-82
2022/06/13 04:26:20;;;;;;;12.82;11.82;;;;;;;20.35;64.29;99954.44;5014327;28;101226;-80
2022/06/13 04:28:56;;;;;;;13.25;12.00;;;;;;;20.55;63.69;99978.66;5026450;28;97069;-82
2022/06/13 04:31:23;;;;;;;12.32;11.15;;;;;;;20.68;63.43;99978.50;5011679;28;96742;-80
2022/06/13 04:33:52;;;;;;;13.02;11.75;;;;;;;20.60;63.92;99973.81;4994314;28;101101;-80
2022/06/13 04:36:18;;;;;;;12.88;11.85;;;;;;;20.53;64.21;99959.28;4997346;28;101428;-82
2022/06/13 04:38:52;;;;;;;12.60;11.55;;;;;;;20.47;64.92;99967.75;5013847;28;97394;-82
2022/06/13 04:41:19;;;;;;;13.45;12.45;;;;;;;20.55;64.38;99971.50;4989973;28;96840;-80
2022/06/13 04:43:46;;;;;;;12.50;11.38;;;;;;;20.64;64.47;99985.06;4991844;27;101092;-78
2022/06/13 04:46:14;;;;;;;12.65;11.50;;;;;;;20.62;64.39;99981.69;5009216;28;97333;-80
2022/06/13 04:48:42;;;;;;;13.05;12.00;;;;;;;20.57;63.92;99966.91;5009195;28;97064;-82
2022/06/13 04:51:14;;;;;;;12.88;11.75;;;;;;;20.54;64.21;99964.50;5005220;28;96913;-80
2022/06/13 04:54:14;;;;;;;13.13;12.02;;;;;;;20.73;64.28;99993.16;5006677;28;101602;-82
2022/06/13 04:56:39;;;;;;;12.25;11.45;;;;;;;20.78;63.30;99990.97;5007449;28;100983;-82
2022/06/13 04:59:05;;;;;;;12.48;11.27;;;;;;;20.98;62.93;99985.84;5003247;28;97148;-80
2022/06/13 05:01:34;;;;;;;11.32;10.50;;;;;;;20.79;62.83;99959.81;5000084;27;97657;-80
2022/06/13 05:04:03;;;;;;;12.52;11.63;;;;;;;20.93;62.61;99980.88;5010824;28;101433;-83
2022/06/13 05:06:32;;;;;;;11.45;10.65;;;;;;;20.62;63.28;99961.19;5013536;28;98622;-83
2022/06/13 05:09:10;;;;;;;11.30;10.60;;;;;;;20.80;63.19;99988.19;5011790;28;96695;-82
2022/06/13 05:11:38;;;;;;;12.45;11.55;;;;;;;20.85;63.29;99990.47;4998774;28;97037;-85
2022/06/13 05:14:17;;;;;;;12.55;11.25;;;;;;;21.08;62.54;99996.56;5012393;28;98238;-83
2022/06/13 05:16:54;;;;;;;11.63;10.88;;;;;;;20.95;61.24;100007.44;4997151;27;101040;-82
2022/06/13 05:19:38;;;;;;;11.35;10.55;;;;;;;20.80;61.79;99996.19;5020732;28;98831;-83
2022/06/13 05:22:07;;;;;;;14.90;11.95;;;;;;;20.79;61.61;100019.34;5009109;28;97279;-83
2022/06/13 05:24:36;;;;;;;11.75;10.95;;;;;;;20.58;62.28;100018.41;4995311;28;97587;-81
2022/06/13 05:27:05;;;;;;;12.05;11.23;;;;;;;20.39;63.39;100026.16;5016560;28;97916;-83
2022/06/13 05:29:31;;;;;;;12.45;11.38;;;;;;;20.30;63.44;100023.28;4993973;28;97279;-82
2022/06/13 05:31:56;;;;;;;13.15;11.85;;;;;;;20.20;63.45;100026.78;4980209;28;98422;-80
2022/06/13 05:34:31;;;;;;;11.95;11.05;;;;;;;20.24;63.60;100045.03;5011547;28;100988;-80
2022/06/13 05:36:56;;;;;;;12.88;12.02;;;;;;;20.10;64.09;100047.94;4997199;28;98260;-81
2022/06/13 05:39:22;;;;;;;13.15;11.82;;;;;;;20.04;64.31;100046.63;4994754;28;97650;-81
2022/06/13 05:41:47;;;;;;;13.20;12.00;;;;;;;19.84;64.69;100024.19;5012311;28;96880;-81
2022/06/13 05:44:13;;;;;;;13.68;12.38;;;;;;;19.90;65.24;100042.38;5010459;28;98255;-82
2022/06/13 05:46:39;;;;;;;12.52;11.65;;;;;;;19.86;65.03;100032.06;5006120;28;101450;-81
2022/06/13 05:49:05;;;;;;;12.98;12.07;;;;;;;19.92;64.85;100012.09;4996164;27;96909;-80
2022/06/13 05:51:30;;;;;;;12.20;11.40;;;;;;;19.94;64.74;100028.81;4981483;28;98287;-83
2022/06/13 05:54:00;;;;;;;12.35;11.65;;;;;;;19.84;65.33;100023.34;4995965;28;101258;-84
2022/06/13 05:56:26;;;;;;;12.65;11.85;;;;;;;19.71;65.32;99996.81;4995658;28;98550;-83
2022/06/13 05:58:52;;;;;;;13.07;12.02;;;;;;;19.77;65.28;100009.66;5007363;28;96803;-83
2022/06/13 06:01:17;;;;;;;13.20;12.20;;;;;;;19.87;65.02;100005.31;5006336;28;96988;-83
2022/06/13 06:03:45;;;;;;;13.23;12.13;;;;;;;19.84;65.09;100005.56;5004016;28;97927;-83
2022/06/13 06:06:13;;;;;;;12.52;11.73;;;;;;;19.82;65.39;100004.81;5005144;28;102878;-82
2022/06/13 06:08:39;;;;;;;12.98;11.77;;;;;;;19.85;65.36;100001.06;5011443;28;97164;-83
2022/06/13 06:11:04;;;;;;;12.70;11.90;;;;;;;19.63;65.39;99965.44;5011487;28;96930;-82
2022/06/13 06:13:30;;;;;;;13.30;12.20;;;;;;;19.85;65.74;99985.94;4994224;28;101493;-83
2022/06/13 06:15:59;;;;;;;12.63;11.63;;;;;;;19.77;65.69;99964.38;4993920;28;101137;-83
2022/06/13 06:18:25;;;;;;;12.88;12.00;;;;;;;19.81;65.65;99967.63;5012362;28;98025;-83
2022/06/13 06:20:51;;;;;;;12.68;11.73;;;;;;;19.91;65.67;99987.28;5009652;28;97455;-82
2022/06/13 06:23:17;;;;;;;12.45;11.55;;;;;;;19.87;65.63;99977.84;5017622;28;98010;-83
2022/06/13 06:25:44;;;;;;;11.85;11.15;;;;;;;19.86;65.70;99984.97;5021296;28;101627;-82
2022/06/13 06:28:15;;;;;;;12.43;11.50;;;;;;;19.81;65.71;99984.50;4990841;28;96772;-82
2022/06/13 06:30:41;;;;;;;13.38;12.02;;;;;;;19.64;65.86;99982.25;5008232;28;96985;-85
2022/06/13 06:33:06;;;;;;;12.32;11.52;;;;;;;19.73;65.73;100015.34;5009550;28;97394;-86
2022/06/13 06:35:33;;;;;;;13.25;12.20;;;;;;;19.78;66.32;100021.13;4992914;28;97953;-80
2022/06/13 06:37:59;;;;;;;12.30;11.40;;;;;;;19.95;66.03;100023.34;5012408;28;97106;-80
2022/06/13 06:40:25;;;;;;;13.13;11.88;;;;;;;20.10;65.20;99998.19;5011555;28;96913;-80
2022/06/13 06:42:51;;;;;;;12.55;11.63;;;;;;;20.30;64.57;99999.28;5000702;28;100937;-80
2022/06/13 06:45:17;;;;;;;12.43;11.23;;;;;;;20.39;64.60;100007.50;5001906;28;97921;-77
2022/06/13 06:47:43;;;;;;;11.73;11.02;;;;;;;20.32;64.79;100004.47;5001954;27;97053;-81
2022/06/13 06:50:18;;;;;;;11.70;10.90;;;;;;;20.07;65.14;99970.91;5008523;28;97111;-78
2022/06/13 06:52:43;;;;;;;13.15;12.13;;;;;;;20.20;65.33;99984.97;5018556;28;98112;-84
2022/06/13 07:00:45;;;;;;;12.63;11.73;;;;;;;19.82;66.12;99966.69;4989520;28;97363;-91
2022/06/13 07:03:11;;;;;;;12.90;12.00;;;;;;;19.85;65.99;99990.41;5027791;28;97563;-84
2022/06/13 07:05:36;;;;;;;12.73;11.73;;;;;;;19.90;65.99;99986.44;4997696;28;98261;-85
2022/06/13 07:08:02;;;;;;;13.07;12.07;;;;;;;20.17;65.37;99995.88;5008856;28;96927;-82
2022/06/13 07:10:27;;;;;;;12.35;11.55;;;;;;;20.40;64.69;99993.22;5017302;27;98327;-85
2022/06/13 07:12:53;;;;;;;13.77;12.40;;;;;;;20.55;64.24;100008.00;5027140;28;97917;-83
2022/06/13 07:15:19;;;;;;;13.48;11.65;;;;;;;20.72;64.19;100018.16;5009572;28;97851;-85
2022/06/13 07:17:44;;;;;;;12.55;11.65;;;;;;;20.91;63.64;100012.16;5011762;28;97289;-88
2022/06/13 07:20:13;;;;;;;12.00;11.20;;;;;;;21.07;62.97;100019.75;5027816;28;98184;-83
2022/06/13 07:22:48;;;;;;;11.98;11.18;;;;;;;21.15;62.31;100009.28;5008811;28;97420;-83
2022/06/13 07:25:16;;;;;;;11.57;10.57;;;;;;;21.68;60.81;100021.81;5009979;28;101390;-80
2022/06/13 07:27:42;;;;;;;11.60;10.80;;;;;;;21.70;60.25;99985.13;5020369;28;100901;-81
2022/06/13 07:30:08;;;;;;;12.20;11.40;;;;;;;21.89;59.95;100003.91;5025651;27;97963;-84
2022/06/13 07:32:34;;;;;;;12.98;11.50;;;;;;;21.91;59.81;100007.31;5021686;28;101196;-83
2022/06/13 07:35:01;;;;;;;11.82;10.77;;;;;;;21.91;59.77;99995.78;5003370;28;97389;-82
2022/06/13 07:40:11;;;;;;;11.82;10.80;;;;;;;22.08;59.50;100005.03;5021384;28;96745;-81
2022/06/13 07:42:52;;;;;;;12.68;11.63;;;;;;;22.18;59.17;100008.59;5012359;28;97915;-81
2022/06/13 07:45:21;;;;;;;13.00;11.68;;;;;;;22.37;58.72;100005.16;4999103;28;101068;-80
2022/06/13 07:47:49;;;;;;;13.73;12.18;;;;;;;22.56;57.98;99999.84;5025029;28;97253;-80
2022/06/13 07:50:16;;;;;;;16.67;12.00;;;;;;;22.71;57.51;100005.66;5020607;28;96923;-80
2022/06/13 07:52:42;;;;;;;12.57;11.65;;;;;;;22.72;56.78;99983.28;5030808;27;97257;-82
2022/06/13 07:55:08;;;;;;;13.25;12.05;;;;;;;23.24;55.47;100002.66;5012999;28;100216;-81
2022/06/13 07:57:33;;;;;;;16.25;14.73;;;;;;;23.30;55.75;100011.97;4997490;28;97192;-83
2022/06/13 07:59:59;;;;;;;17.80;13.88;;;;;;;23.22;55.62;100009.97;5010180;28;97174;-83
2022/06/13 08:02:29;;;;;;;13.45;12.52;;;;;;;23.16;55.50;100007.03;4998941;28;101355;-80
2022/06/13 08:04:55;;;;;;;15.57;13.37;;;;;;;23.09;55.92;100019.28;5021986;28;101674;-82
2022/06/13 08:07:20;;;;;;;13.45;12.43;;;;;;;22.96;55.88;99990.13;5004661;28;97416;-80
2022/06/13 08:09:46;;;;;;;16.42;13.15;;;;;;;23.02;55.92;100008.28;5015645;28;97088;-81
2022/06/13 08:12:13;;;;;;;14.60;13.40;;;;;;;22.99;56.03;100004.06;5012517;28;98177;-80
2022/06/13 08:14:45;;;;;;;14.05;12.90;;;;;;;23.01;55.88;100018.16;5018968;28;98592;-82
2022/06/13 08:17:14;;;;;;;14.63;13.23;;;;;;;23.13;55.95;100032.25;4991335;28;97698;-82
2022/06/13 08:19:39;;;;;;;15.63;13.20;;;;;;;23.08;55.82;100034.50;5016223;28;97030;-81
2022/06/13 08:22:05;;;;;;;14.00;12.88;;;;;;;23.19;55.67;100028.16;5015507;28;101169;-81
2022/06/13 08:24:30;;;;;;;14.70;13.25;;;;;;;23.05;56.05;100016.88;5030302;28;97421;-81
2022/06/13 08:26:56;;;;;;;16.65;15.30;;;;;;;23.09;55.83;100025.47;5015322;28;96672;-83
2022/06/13 08:29:21;;;;;;;15.85;14.30;;;;;;;23.27;55.54;100029.16;5013205;28;96900;-83
2022/06/13 08:31:47;;;;;;;16.52;14.95;;;;;;;23.30;55.42;100019.13;5027888;28;97643;-80
2022/06/13 08:34:12;;;;;;;15.07;13.77;;;;;;;23.19;55.13;100022.81;5017411;28;101271;-80
2022/06/13 08:36:38;;;;;;;14.52;13.18;;;;;;;23.27;55.04;100044.34;5019899;28;97421;-83
2022/06/13 08:39:03;;;;;;;15.35;13.45;;;;;;;23.04;55.79;100060.69;5028351;28;97292;-81
2022/06/13 08:41:40;;;;;;;14.77;13.35;;;;;;;22.81;56.28;100072.59;5024513;28;98164;-80
2022/06/13 08:44:24;;;;;;;14.95;13.57;;;;;;;22.58;56.51;100082.66;5012917;28;102174;-80
2022/06/13 08:46:54;;;;;;;16.17;13.65;;;;;;;22.40;57.10;100074.41;5004063;28;97004;-79
2022/06/13 08:49:36;;;;;;;14.40;13.00;;;;;;;22.36;56.92;100097.88;5010615;28;96853;-80
2022/06/13 08:52:28;;;;;;;13.98;12.90;;;;;;;22.31;56.82;100105.47;5006596;28;97836;-79
2022/06/13 08:55:02;;;;;;;19.35;13.55;;;;;;;22.23;56.63;100104.44;5009221;28;101594;-79
2022/06/13 08:57:31;;;;;;;14.13;12.90;;;;;;;22.15;56.37;100113.91;5008917;28;97545;-79
2022/06/13 09:00:05;;;;;;;14.10;12.75;;;;;;;21.94;56.52;100107.75;5021534;28;98590;-79
2022/06/13 09:02:40;;;;;;;13.23;12.23;;;;;;;21.94;56.94;100134.47;4996638;28;102462;-79
2022/06/13 09:05:27;;;;;;;14.45;12.98;;;;;;;21.90;56.81;100144.56;4994607;28;101395;-83
2022/06/13 09:08:04;;;;;;;20.83;13.18;;;;;;;21.78;56.76;100155.41;5007187;28;97375;-81
2022/06/13 09:10:39;;;;;;;14.63;13.20;;;;;;;21.68;57.22;100158.03;5009841;28;97295;-81
2022/06/13 09:13:10;;;;;;;16.83;12.73;;;;;;;21.45;58.65;100173.28;5019900;27;100990;-79
2022/06/13 09:15:46;;;;;;;14.60;12.35;;;;;;;21.13;59.11;100151.84;5030457;28;97526;-77
2022/06/13 09:18:36;;;;;;;14.38;12.93;;;;;;;21.32;59.47;100184.06;5002883;28;96879;-77
2022/06/13 09:21:11;;;;;;;13.17;11.97;;;;;;;21.10;60.56;100190.28;4994177;28;98628;-79
2022/06/13 09:23:57;;;;;;;14.77;12.55;;;;;;;21.11;60.47;100196.47;5006498;28;101562;-81
2022/06/13 09:26:45;;;;;;;14.32;13.02;;;;;;;20.98;61.27;100213.47;4994976;28;101392;-80
2022/06/13 09:29:24;;;;;;;14.10;12.52;;;;;;;20.79;62.19;100215.88;5026793;28;96931;-80
2022/06/13 09:31:54;;;;;;;12.82;11.73;;;;;;;20.58;62.11;100199.72;5010175;28;97148;-80
2022/06/13 09:34:34;;;;;;;13.90;12.68;;;;;;;20.69;62.44;100225.56;5014338;28;97439;-80
2022/06/13 09:37:11;;;;;;;17.15;12.63;;;;;;;20.54;62.71;100219.63;5002984;28;100612;-80
2022/06/13 09:39:38;;;;;;;13.27;11.98;;;;;;;20.44;62.71;100224.75;5025441;28;97137;-82
2022/06/13 09:42:16;;;;;;;13.95;12.40;;;;;;;20.45;62.90;100222.94;5030935;28;97250;-83
2022/06/13 09:44:52;;;;;;;14.77;12.32;;;;;;;20.30;63.24;100203.63;4979931;28;99228;-82
2022/06/13 09:47:36;;;;;;;14.10;11.75;;;;;;;20.31;63.47;100221.34;5017982;27;97167;-83
2022/06/13 09:50:14;;;;;;;21.23;13.90;;;;;;;20.39;63.56;100226.06;5027674;28;96707;-80
2022/06/13 09:53:01;;;;;;;13.95;12.60;;;;;;;20.31;63.58;100218.69;5019595;28;97403;-80
2022/06/13 09:55:35;;;;;;;13.77;12.38;;;;;;;20.30;63.77;100231.16;5020424;28;97593;-80
2022/06/13 09:58:12;;;;;;;18.38;12.70;;;;;;;20.32;63.62;100226.53;5013015;28;101224;-79
2022/06/13 10:00:46;;;;;;;15.93;13.63;;;;;;;20.20;63.44;100216.81;5029811;28;96721;-80
2022/06/13 10:03:35;;;;;;;14.75;12.25;;;;;;;20.38;63.66;100227.88;5023621;28;96918;-80
2022/06/13 10:06:20;;;;;;;14.40;12.90;;;;;;;20.41;63.77;100210.81;5021791;28;98589;-80
2022/06/13 10:09:03;;;;;;;13.38;12.05;;;;;;;20.35;63.87;100217.47;5013235;28;100968;-79
2022/06/13 10:11:32;;;;;;;14.18;12.40;;;;;;;20.43;63.45;100217.72;5030049;28;97211;-80
2022/06/13 10:14:22;;;;;;;16.52;12.90;;;;;;;20.33;63.80;100222.06;5026979;28;97209;-81
2022/06/13 10:16:57;;;;;;;15.90;12.52;;;;;;;20.27;64.08;100217.19;5010875;28;101689;-80
2022/06/13 10:19:49;;;;;;;14.02;12.60;;;;;;;20.26;64.63;100213.69;5019849;28;97482;-80
2022/06/13 10:22:18;;;;;;;13.52;12.23;;;;;;;20.30;64.46;100215.16;5008868;28;97096;-81
2022/06/13 10:24:47;;;;;;;15.73;12.43;;;;;;;20.33;64.23;100206.06;5013247;28;97620;-82
2022/06/13 10:27:34;;;;;;;13.45;12.25;;;;;;;20.39;64.21;100207.41;5023679;28;97453;-84
2022/06/13 10:30:18;;;;;;;14.60;13.00;;;;;;;20.53;64.14;100213.41;4997324;28;101647;-82
2022/06/13 10:32:52;;;;;;;13.20;11.88;;;;;;;20.52;64.42;100227.72;5017586;28;97262;-81
2022/06/13 10:35:23;;;;;;;14.15;12.52;;;;;;;20.44;64.58;100208.75;5027387;28;96709;-82
2022/06/13 10:38:02;;;;;;;13.82;12.45;;;;;;;20.52;64.76;100210.84;5012588;28;99266;-82
2022/06/13 10:40:28;;;;;;;16.05;12.15;;;;;;;20.55;64.32;100199.97;5018600;28;97548;-80
2022/06/13 10:42:54;;;;;;;13.68;12.32;;;;;;;20.67;64.57;100203.50;5018426;28;97244;-81
2022/06/13 10:45:20;;;;;;;14.88;12.63;;;;;;;20.74;64.08;100184.25;5004640;28;97468;-80
2022/06/13 10:47:48;;;;;;;14.63;13.13;;;;;;;21.08;63.68;100191.38;5007179;28;101492;-82
2022/06/13 10:50:21;;;;;;;18.40;13.00;;;;;;;21.31;63.88;100192.19;5011437;28;101287;-81
2022/06/13 10:52:50;;;;;;;14.00;12.77;;;;;;;21.57;63.04;100190.09;5024553;28;96834;-81
2022/06/13 10:55:21;;;;;;;14.35;13.05;;;;;;;21.54;62.60;100175.19;5008903;28;97014;-81
2022/06/13 10:58:01;;;;;;;14.30;12.95;;;;;;;21.63;62.08;100189.59;5007033;28;99603;-80
2022/06/13 11:00:29;;;;;;;13.70;12.32;;;;;;;21.78;62.72;100184.81;5010212;28;97392;-80
2022/06/13 11:03:16;;;;;;;13.95;12.65;;;;;;;21.90;60.81;100198.00;5015716;28;97602;-80
2022/06/13 11:05:54;;;;;;;15.13;12.13;;;;;;;21.96;60.60;100193.94;5019525;28;96754;-81
2022/06/13 11:08:20;;;;;;;14.23;12.75;;;;;;;22.13;59.74;100172.00;5020504;28;97489;-83
2022/06/13 11:10:55;;;;;;;14.63;12.70;;;;;;;22.06;60.60;100170.00;4999613;28;101511;-81
2022/06/13 11:13:30;;;;;;;14.93;13.38;;;;;;;21.98;60.64;100183.16;5021226;28;96853;-82
2022/06/13 11:24:54;;;;;;;13.55;12.35;;;;;;;22.08;60.88;100187.59;5021263;28;97121;-84
2022/06/13 11:27:42;;;;;;;14.55;13.05;;;;;;;22.17;61.00;100155.72;5016679;28;97195;-80
2022/06/13 11:30:16;;;;;;;14.23;12.77;;;;;;;22.38;61.09;100168.13;5009604;28;101638;-80
2022/06/13 11:33:09;;;;;;;13.98;12.70;;;;;;;22.37;60.39;100147.72;5031828;28;101284;-79
2022/06/13 11:35:39;;;;;;;14.77;12.50;;;;;;;22.55;59.95;100165.84;5034174;27;96681;-83
2022/06/13 11:38:19;;;;;;;13.15;12.05;;;;;;;22.58;59.72;100145.00;5032622;28;96998;-81
2022/06/13 11:40:46;;;;;;;13.35;12.20;;;;;;;22.62;59.71;100155.44;5012239;28;101647;-83
2022/06/13 11:43:33;;;;;;;15.02;13.32;;;;;;;22.47;60.24;100174.50;4991796;28;100907;-81
2022/06/13 11:46:02;;;;;;;14.95;11.68;;;;;;;22.22;61.40;100156.19;5016996;28;97270;-80
2022/06/13 11:48:28;;;;;;;16.88;15.00;;;;;;;22.16;61.25;100162.88;5013091;28;97287;-82
2022/06/13 11:51:01;;;;;;;13.75;12.50;;;;;;;22.18;61.39;100168.13;5024831;28;97420;-82
2022/06/13 11:53:36;;;;;;;13.25;11.77;;;;;;;22.12;61.40;100173.00;5014041;28;101629;-80
2022/06/13 11:56:06;;;;;;;13.23;11.93;;;;;;;22.09;61.33;100153.69;5016301;28;96886;-80